Weather History for Hot Springs, VA

Change the Weather History Date:

Tuesday, November 2, 2010

  Actual Average Record
Temperature  
Mean Temperature 37 °F -  
Max Temperature 44 °F 51 °F 71 °F (2003)
Min Temperature 30 °F 36 °F 19 °F (1996)
Degree Days  
Heating Degree Days 28    
Moisture  
Dew Point 34 °F    
Average Humidity 89    
Maximum Humidity 100    
Minimum Humidity 71    
Precipitation  
Precipitation 0.00 in - - ()
Sea Level Pressure  
Sea Level Pressure 30.35 in    
Wind  
Wind Speed 6 mph (ESE)    
Max Wind Speed 9 mph    
Max Gust Speed -    
Visibility 10 miles    
Events      
Averages and records for this station are not official NWS values.
T = Trace of Precipitation, MM = Missing Value Source: NWS Daily Summary

Daily Weather History Graph

Daily Weather History Graph

Search for Another Location

Airport:

Trip Planner

Search our weather history database for the weather conditions in past years. The results will help you decide how hot, cold, wet, or windy it might be!

Date:

Astronomy

Nov. 02, 2010 Rise Set
Actual Time 7:45 AM EDT 6:19 PM EDT
Civil Twilight 7:18 AM EDT 6:46 PM EDT
Nautical Twilight 6:47 AM EDT 7:17 PM EDT
Astronomical Twilight 6:16 AM EDT 7:48 PM EDT
Moon 3:35 AM EDT (11/2) 3:53 PM EDT (11/2)
Length of Visible Light 11h 27m
Length of Day
10h 33m
Waning Crescent, 17% of the Moon is Illuminated
Nov 2
Waning Crescent
Nov 6
New
Nov 13
First Quarter
Nov 21
Full
Nov 28
Last Quarter

Hourly Weather History & Observations

Time (EDT) Temp. Windchill Dew Point Humidity Pressure Visibility Wind Dir Wind Speed Gust Speed Precip Events Conditions
12:00 AM 37.4 °F 33.8 °F 33.8 °F 87% 30.37 in 10.0 mi East 4.6 mph - N/A   Clear
12:20 AM 35.6 °F 30.7 °F 33.8 °F 93% 30.36 in 10.0 mi East 5.8 mph - N/A   Clear
1:00 AM 35.6 °F 29.9 °F 33.8 °F 93% 30.36 in 10.0 mi East 6.9 mph - N/A   Clear
1:20 AM 35.6 °F 31.7 °F 33.8 °F 93% 30.37 in 10.0 mi East 4.6 mph - N/A   Clear
1:40 AM 35.6 °F 30.7 °F 33.8 °F 93% 30.37 in 10.0 mi East 5.8 mph - N/A   Clear
2:00 AM 35.6 °F 31.7 °F 33.8 °F 93% 30.37 in 10.0 mi East 4.6 mph - N/A   Clear
2:20 AM 35.6 °F 31.7 °F 33.8 °F 93% 30.36 in 10.0 mi East 4.6 mph - N/A   Clear
2:40 AM 35.6 °F 31.7 °F 33.8 °F 93% 30.36 in 10.0 mi East 4.6 mph - N/A   Clear
3:00 AM 33.8 °F 28.6 °F 33.8 °F 100% 30.36 in 10.0 mi East 5.8 mph - N/A   Clear
3:20 AM 33.8 °F 28.6 °F 33.8 °F 100% 30.36 in 10.0 mi East 5.8 mph - N/A   Clear
3:40 AM 33.8 °F 29.6 °F 33.8 °F 100% 30.36 in 10.0 mi East 4.6 mph - N/A   Clear
4:00 AM 33.8 °F 29.6 °F 33.8 °F 100% 30.36 in 10.0 mi East 4.6 mph - N/A   Clear
4:20 AM 33.8 °F 28.6 °F 33.8 °F 100% 30.36 in 10.0 mi ENE 5.8 mph - N/A   Clear
5:00 AM 33.8 °F 28.6 °F 32.0 °F 93% 30.36 in 10.0 mi East 5.8 mph - N/A   Clear
5:20 AM 33.8 °F 29.6 °F 32.0 °F 93% 30.37 in 10.0 mi East 4.6 mph - N/A   Clear
5:40 AM 33.8 °F 30.8 °F 32.0 °F 93% 30.38 in 10.0 mi East 3.5 mph - N/A   Clear
6:00 AM 33.8 °F 29.6 °F 32.0 °F 93% 30.38 in 10.0 mi East 4.6 mph - N/A   Clear
6:20 AM 32.0 °F 27.5 °F 32.0 °F 100% 30.38 in 10.0 mi East 4.6 mph - N/A   Clear
6:40 AM 32.0 °F 25.6 °F 30.2 °F 93% 30.36 in 10.0 mi East 6.9 mph - N/A   Clear
7:00 AM 32.0 °F 25.6 °F 30.2 °F 93% 30.35 in 10.0 mi East 6.9 mph - N/A   Clear
7:20 AM 32.0 °F 25.6 °F 30.2 °F 93% 30.36 in 10.0 mi East 6.9 mph - N/A   Clear
7:40 AM 30.2 °F 24.3 °F 30.2 °F 100% 30.36 in 10.0 mi East 5.8 mph - N/A   Clear
8:00 AM 30.2 °F 25.4 °F 30.2 °F 100% 30.37 in 10.0 mi East 4.6 mph - N/A   Clear
8:20 AM 32.0 °F 27.5 °F 30.2 °F 93% 30.37 in 10.0 mi East 4.6 mph - N/A   Clear
8:40 AM 32.0 °F 26.4 °F 30.2 °F 93% 30.37 in 10.0 mi East 5.8 mph - N/A   Clear
9:00 AM 32.0 °F 25.6 °F 30.2 °F 93% 30.38 in 10.0 mi East 6.9 mph - N/A   Clear
9:20 AM 33.8 °F 28.6 °F 32.0 °F 93% 30.39 in 10.0 mi East 5.8 mph - N/A   Clear
9:40 AM 35.6 °F 30.7 °F 32.0 °F 87% 30.39 in 10.0 mi ESE 5.8 mph - N/A   Clear
10:00 AM 35.6 °F 29.9 °F 32.0 °F 87% 30.38 in 10.0 mi East 6.9 mph - N/A   Clear
10:20 AM 35.6 °F 31.7 °F 33.8 °F 93% 30.38 in 10.0 mi East 4.6 mph - N/A   Clear
10:40 AM 37.4 °F 32.1 °F 33.8 °F 87% 30.38 in 10.0 mi East 6.9 mph - N/A   Clear
11:00 AM 37.4 °F 32.1 °F 33.8 °F 87% 30.38 in 10.0 mi ESE 6.9 mph - N/A   Clear
11:20 AM 37.4 °F 32.1 °F 33.8 °F 87% 30.39 in 10.0 mi SE 6.9 mph - N/A   Clear
11:40 AM 39.2 °F 35.9 °F 33.8 °F 81% 30.38 in 10.0 mi SSE 4.6 mph - N/A   Clear
12:00 PM 39.2 °F 34.2 °F 33.8 °F 81% 30.38 in 10.0 mi ESE 6.9 mph - N/A   Clear
12:20 PM 39.2 °F 35.9 °F 33.8 °F 81% 30.38 in 10.0 mi SE 4.6 mph - N/A   Clear
12:40 PM 41.0 °F 37.1 °F 35.6 °F 81% 30.37 in 10.0 mi SE 5.8 mph - N/A   Clear
1:00 PM 42.8 °F 40.1 °F 35.6 °F 76% 30.36 in 10.0 mi South 4.6 mph - N/A   Clear
1:20 PM 42.8 °F 39.3 °F 35.6 °F 76% 30.35 in 10.0 mi ESE 5.8 mph - N/A   Clear
1:40 PM 42.8 °F 38.0 °F 35.6 °F 76% 30.34 in 10.0 mi SE 8.1 mph - N/A   Clear
2:00 PM 42.8 °F 38.6 °F 35.6 °F 76% 30.33 in 10.0 mi East 6.9 mph - N/A   Clear
2:20 PM 44.6 °F 39.7 °F 35.6 °F 71% 30.33 in 10.0 mi SE 9.2 mph - N/A   Scattered Clouds
3:00 PM 44.6 °F 40.7 °F 37.4 °F 76% 30.31 in 10.0 mi SE 6.9 mph - N/A   Scattered Clouds
3:20 PM 44.6 °F 41.4 °F 37.4 °F 76% 30.31 in 10.0 mi South 5.8 mph - N/A   Scattered Clouds
3:40 PM 44.6 °F 41.4 °F 37.4 °F 76% 30.31 in 10.0 mi ESE 5.8 mph - N/A   Scattered Clouds
4:00 PM 44.6 °F 41.4 °F 37.4 °F 76% 30.30 in 10.0 mi ESE 5.8 mph - N/A   Scattered Clouds
4:20 PM 44.6 °F 41.4 °F 37.4 °F 76% 30.30 in 10.0 mi SE 5.8 mph - N/A   Scattered Clouds
4:40 PM 42.8 °F 38.0 °F 37.4 °F 81% 30.30 in 10.0 mi ESE 8.1 mph - N/A   Mostly Cloudy
5:00 PM 42.8 °F 38.0 °F 37.4 °F 81% 30.29 in 10.0 mi SE 8.1 mph - N/A   Overcast
5:20 PM 42.8 °F 39.3 °F 37.4 °F 81% 30.29 in 10.0 mi SSE 5.8 mph - N/A   Mostly Cloudy
5:40 PM 42.8 °F 38.6 °F 37.4 °F 81% 30.29 in 10.0 mi SE 6.9 mph - N/A   Overcast
6:00 PM 41.0 °F 37.1 °F 37.4 °F 87% 30.29 in 10.0 mi SSE 5.8 mph - N/A   Overcast
6:20 PM 41.0 °F 37.1 °F 37.4 °F 87% 30.29 in 10.0 mi SSE 5.8 mph - N/A   Overcast
6:40 PM 39.2 °F 35.0 °F 37.4 °F 93% 30.29 in 10.0 mi SSE 5.8 mph - N/A   Overcast
7:00 PM 39.2 °F 35.0 °F 37.4 °F 93% 30.29 in 10.0 mi SSE 5.8 mph - N/A   Mostly Cloudy
7:20 PM 39.2 °F 35.0 °F 37.4 °F 93% 30.30 in 10.0 mi South 5.8 mph - N/A   Overcast
7:40 PM 37.4 °F 32.8 °F 37.4 °F 100% 30.30 in 10.0 mi SSE 5.8 mph - N/A   Overcast
8:00 PM 37.4 °F 32.8 °F 37.4 °F 100% 30.30 in 10.0 mi SSE 5.8 mph - N/A   Overcast
8:20 PM 37.4 °F 31.4 °F 35.6 °F 93% 30.29 in 10.0 mi South 8.1 mph - N/A   Overcast
8:40 PM 37.4 °F 32.1 °F 35.6 °F 93% 30.29 in 10.0 mi South 6.9 mph - N/A   Mostly Cloudy
9:00 PM 37.4 °F 31.4 °F 35.6 °F 93% 30.29 in 10.0 mi South 8.1 mph - N/A   Mostly Cloudy
9:20 PM 37.4 °F 32.1 °F 35.6 °F 93% 30.29 in 10.0 mi South 6.9 mph - N/A   Scattered Clouds
9:40 PM 37.4 °F 32.1 °F 35.6 °F 93% 30.29 in 10.0 mi South 6.9 mph - N/A   Scattered Clouds
10:00 PM 37.4 °F 32.8 °F 35.6 °F 93% 30.29 in 10.0 mi South 5.8 mph - N/A   Scattered Clouds
10:20 PM 37.4 °F 31.4 °F 35.6 °F 93% 30.29 in 10.0 mi South 8.1 mph - N/A   Clear
10:40 PM 35.6 °F 30.7 °F 35.6 °F 100% 30.29 in 10.0 mi South 5.8 mph - N/A   Clear
11:00 PM 35.6 °F 31.7 °F 35.6 °F 100% 30.29 in 10.0 mi South 4.6 mph - N/A   Clear
11:20 PM 35.6 °F 30.7 °F 35.6 °F 100% 30.28 in 10.0 mi South 5.8 mph - N/A   Clear
11:40 PM 35.6 °F 30.7 °F 35.6 °F 100% 30.28 in 10.0 mi South 5.8 mph - N/A   Clear